sensor_id;sensor_type;location;lat;lon;timestamp;temperature;humidity
37788;DHT22;23627;53.302;-6.362;2023-02-16T00:00:18;9.20;99.90
37788;DHT22;23627;53.302;-6.362;2023-02-16T00:02:44;9.20;99.90
37788;DHT22;23627;53.302;-6.362;2023-02-16T00:05:29;9.10;99.90
37788;DHT22;23627;53.302;-6.362;2023-02-16T00:07:56;9.20;99.90
37788;DHT22;23627;53.302;-6.362;2023-02-16T00:10:22;9.20;99.90
37788;DHT22;23627;53.302;-6.362;2023-02-16T00:12:48;9.20;99.90
37788;DHT22;23627;53.302;-6.362;2023-02-16T00:15:32;9.20;99.90
37788;DHT22;23627;53.302;-6.362;2023-02-16T00:17:58;9.20;99.90
37788;DHT22;23627;53.302;-6.362;2023-02-16T00:20:25;9.20;99.90
37788;DHT22;23627;53.302;-6.362;2023-02-16T00:22:51;9.20;99.90
37788;DHT22;23627;53.302;-6.362;2023-02-16T00:25:17;9.20;99.90
37788;DHT22;23627;53.302;-6.362;2023-02-16T00:27:42;9.20;99.90
37788;DHT22;23627;53.302;-6.362;2023-02-16T00:30:14;9.30;99.90
37788;DHT22;23627;53.302;-6.362;2023-02-16T00:32:40;9.20;99.90
37788;DHT22;23627;53.302;-6.362;2023-02-16T00:35:13;9.30;99.90
37788;DHT22;23627;53.302;-6.362;2023-02-16T00:37:39;9.30;99.90
37788;DHT22;23627;53.302;-6.362;2023-02-16T00:40:04;9.30;99.90
37788;DHT22;23627;53.302;-6.362;2023-02-16T00:42:30;9.30;99.90
37788;DHT22;23627;53.302;-6.362;2023-02-16T00:44:57;9.30;99.90
37788;DHT22;23627;53.302;-6.362;2023-02-16T00:49:55;9.30;99.90
37788;DHT22;23627;53.302;-6.362;2023-02-16T00:54:46;9.30;99.90
37788;DHT22;23627;53.302;-6.362;2023-02-16T00:57:13;9.30;99.90
37788;DHT22;23627;53.302;-6.362;2023-02-16T00:59:40;9.30;99.90
37788;DHT22;23627;53.302;-6.362;2023-02-16T01:02:06;9.30;99.90
37788;DHT22;23627;53.302;-6.362;2023-02-16T01:04:31;9.30;99.90
37788;DHT22;23627;53.302;-6.362;2023-02-16T01:06:57;9.30;99.90
37788;DHT22;23627;53.302;-6.362;2023-02-16T01:09:41;9.40;99.90
37788;DHT22;23627;53.302;-6.362;2023-02-16T01:12:25;9.30;99.90
37788;DHT22;23627;53.302;-6.362;2023-02-16T01:14:51;9.30;99.90
37788;DHT22;23627;53.302;-6.362;2023-02-16T01:17:17;9.30;99.90
37788;DHT22;23627;53.302;-6.362;2023-02-16T01:19:43;9.30;99.90
37788;DHT22;23627;53.302;-6.362;2023-02-16T01:22:09;9.40;99.90
37788;DHT22;23627;53.302;-6.362;2023-02-16T01:24:34;9.40;99.90
37788;DHT22;23627;53.302;-6.362;2023-02-16T01:27:00;9.40;99.90
37788;DHT22;23627;53.302;-6.362;2023-02-16T01:29:26;9.40;99.90
37788;DHT22;23627;53.302;-6.362;2023-02-16T01:31:51;9.40;99.90
37788;DHT22;23627;53.302;-6.362;2023-02-16T01:34:17;9.40;99.90
37788;DHT22;23627;53.302;-6.362;2023-02-16T01:36:44;9.40;99.90
37788;DHT22;23627;53.302;-6.362;2023-02-16T01:39:13;9.40;99.90
37788;DHT22;23627;53.302;-6.362;2023-02-16T01:44:15;9.40;99.90
37788;DHT22;23627;53.302;-6.362;2023-02-16T01:49:10;9.40;99.90
37788;DHT22;23627;53.302;-6.362;2023-02-16T01:51:40;9.40;99.90
37788;DHT22;23627;53.302;-6.362;2023-02-16T01:54:11;9.40;99.90
37788;DHT22;23627;53.302;-6.362;2023-02-16T01:56:50;9.40;99.90
37788;DHT22;23627;53.302;-6.362;2023-02-16T02:01:57;9.50;99.90
37788;DHT22;23627;53.302;-6.362;2023-02-16T02:07:08;9.40;99.90
37788;DHT22;23627;53.302;-6.362;2023-02-16T02:09:42;9.40;99.90
37788;DHT22;23627;53.302;-6.362;2023-02-16T02:12:14;9.40;99.90
37788;DHT22;23627;53.302;-6.362;2023-02-16T02:14:41;9.40;99.90
37788;DHT22;23627;53.302;-6.362;2023-02-16T02:17:11;9.40;99.90
37788;DHT22;23627;53.302;-6.362;2023-02-16T02:19:42;9.40;99.90
37788;DHT22;23627;53.302;-6.362;2023-02-16T02:28:18;9.40;99.90
37788;DHT22;23627;53.302;-6.362;2023-02-16T02:33:43;9.40;99.90
37788;DHT22;23627;53.302;-6.362;2023-02-16T02:36:45;9.40;99.90
37788;DHT22;23627;53.302;-6.362;2023-02-16T02:41:38;9.40;99.90
37788;DHT22;23627;53.302;-6.362;2023-02-16T02:44:24;9.30;99.90
37788;DHT22;23627;53.302;-6.362;2023-02-16T02:46:52;9.40;99.90
37788;DHT22;23627;53.302;-6.362;2023-02-16T02:49:17;9.30;99.90
37788;DHT22;23627;53.302;-6.362;2023-02-16T02:51:43;9.40;99.90
37788;DHT22;23627;53.302;-6.362;2023-02-16T02:57:02;9.30;99.90
37788;DHT22;23627;53.302;-6.362;2023-02-16T02:59:58;9.30;99.90
37788;DHT22;23627;53.302;-6.362;2023-02-16T03:02:43;9.30;99.90
37788;DHT22;23627;53.302;-6.362;2023-02-16T03:05:11;9.30;99.90
37788;DHT22;23627;53.302;-6.362;2023-02-16T03:07:38;9.30;99.90
37788;DHT22;23627;53.302;-6.362;2023-02-16T03:10:14;9.40;99.90
37788;DHT22;23627;53.302;-6.362;2023-02-16T03:13:00;9.30;99.90
37788;DHT22;23627;53.302;-6.362;2023-02-16T03:15:26;9.40;99.90
37788;DHT22;23627;53.302;-6.362;2023-02-16T03:17:53;9.30;99.90
37788;DHT22;23627;53.302;-6.362;2023-02-16T03:20:38;9.40;99.90
37788;DHT22;23627;53.302;-6.362;2023-02-16T03:23:23;9.30;99.90
37788;DHT22;23627;53.302;-6.362;2023-02-16T03:26:07;9.40;99.90
37788;DHT22;23627;53.302;-6.362;2023-02-16T03:28:52;9.30;99.90
37788;DHT22;23627;53.302;-6.362;2023-02-16T03:31:36;9.40;99.90
37788;DHT22;23627;53.302;-6.362;2023-02-16T03:34:05;9.40;99.90
37788;DHT22;23627;53.302;-6.362;2023-02-16T03:36:32;9.40;99.90
37788;DHT22;23627;53.302;-6.362;2023-02-16T03:38:58;9.40;99.90
37788;DHT22;23627;53.302;-6.362;2023-02-16T03:41:24;9.40;99.90
37788;DHT22;23627;53.302;-6.362;2023-02-16T03:43:50;9.40;99.90
37788;DHT22;23627;53.302;-6.362;2023-02-16T03:46:16;9.50;99.90
37788;DHT22;23627;53.302;-6.362;2023-02-16T03:48:42;9.50;99.90
37788;DHT22;23627;53.302;-6.362;2023-02-16T03:51:07;9.50;99.90
37788;DHT22;23627;53.302;-6.362;2023-02-16T03:53:33;9.50;99.90
37788;DHT22;23627;53.302;-6.362;2023-02-16T03:55:59;9.50;99.90
37788;DHT22;23627;53.302;-6.362;2023-02-16T03:58:24;9.50;99.90
37788;DHT22;23627;53.302;-6.362;2023-02-16T04:00:50;9.50;99.90
37788;DHT22;23627;53.302;-6.362;2023-02-16T04:03:16;9.50;99.90
37788;DHT22;23627;53.302;-6.362;2023-02-16T04:05:42;9.50;99.90
37788;DHT22;23627;53.302;-6.362;2023-02-16T04:08:08;9.50;99.90
37788;DHT22;23627;53.302;-6.362;2023-02-16T04:10:34;9.50;99.90
37788;DHT22;23627;53.302;-6.362;2023-02-16T04:13:00;9.50;99.90
37788;DHT22;23627;53.302;-6.362;2023-02-16T04:15:26;9.60;99.90
37788;DHT22;23627;53.302;-6.362;2023-02-16T04:17:52;9.60;99.90
37788;DHT22;23627;53.302;-6.362;2023-02-16T04:20:19;9.60;99.90
37788;DHT22;23627;53.302;-6.362;2023-02-16T04:22:45;9.60;99.90
37788;DHT22;23627;53.302;-6.362;2023-02-16T04:25:11;9.60;99.90
37788;DHT22;23627;53.302;-6.362;2023-02-16T04:27:37;9.60;99.90
37788;DHT22;23627;53.302;-6.362;2023-02-16T04:30:03;9.60;99.90
37788;DHT22;23627;53.302;-6.362;2023-02-16T04:32:29;9.60;99.90
37788;DHT22;23627;53.302;-6.362;2023-02-16T04:34:55;9.60;99.90
37788;DHT22;23627;53.302;-6.362;2023-02-16T04:37:20;9.60;99.90
37788;DHT22;23627;53.302;-6.362;2023-02-16T04:39:46;9.60;99.90
37788;DHT22;23627;53.302;-6.362;2023-02-16T04:42:12;9.60;99.90
37788;DHT22;23627;53.302;-6.362;2023-02-16T04:44:37;9.60;99.90
37788;DHT22;23627;53.302;-6.362;2023-02-16T04:47:03;9.60;99.90
37788;DHT22;23627;53.302;-6.362;2023-02-16T04:49:28;9.60;99.90
37788;DHT22;23627;53.302;-6.362;2023-02-16T04:51:54;9.60;99.90
37788;DHT22;23627;53.302;-6.362;2023-02-16T04:54:20;9.60;99.90
37788;DHT22;23627;53.302;-6.362;2023-02-16T04:56:45;9.60;99.90
37788;DHT22;23627;53.302;-6.362;2023-02-16T04:59:11;9.70;99.90
37788;DHT22;23627;53.302;-6.362;2023-02-16T05:01:37;9.70;99.90
37788;DHT22;23627;53.302;-6.362;2023-02-16T05:04:03;9.70;99.90
37788;DHT22;23627;53.302;-6.362;2023-02-16T05:06:28;9.70;99.90
37788;DHT22;23627;53.302;-6.362;2023-02-16T05:08:54;9.70;99.90
37788;DHT22;23627;53.302;-6.362;2023-02-16T05:11:20;9.70;99.90
37788;DHT22;23627;53.302;-6.362;2023-02-16T05:14:04;9.70;99.90
37788;DHT22;23627;53.302;-6.362;2023-02-16T05:16:48;9.70;99.90
37788;DHT22;23627;53.302;-6.362;2023-02-16T05:19:14;9.70;99.90
37788;DHT22;23627;53.302;-6.362;2023-02-16T05:21:39;9.70;99.90
37788;DHT22;23627;53.302;-6.362;2023-02-16T05:24:06;9.70;99.90
37788;DHT22;23627;53.302;-6.362;2023-02-16T05:26:32;9.70;99.90
37788;DHT22;23627;53.302;-6.362;2023-02-16T05:28:58;9.70;99.90
37788;DHT22;23627;53.302;-6.362;2023-02-16T05:31:24;9.70;99.90
37788;DHT22;23627;53.302;-6.362;2023-02-16T05:33:50;9.70;99.90
37788;DHT22;23627;53.302;-6.362;2023-02-16T05:36:15;9.80;99.90
37788;DHT22;23627;53.302;-6.362;2023-02-16T05:38:41;9.70;99.90
37788;DHT22;23627;53.302;-6.362;2023-02-16T05:41:07;9.70;99.90
37788;DHT22;23627;53.302;-6.362;2023-02-16T05:43:32;9.80;99.90
37788;DHT22;23627;53.302;-6.362;2023-02-16T05:45:58;9.80;99.90
37788;DHT22;23627;53.302;-6.362;2023-02-16T05:48:24;9.80;99.90
37788;DHT22;23627;53.302;-6.362;2023-02-16T05:50:52;9.80;99.90
37788;DHT22;23627;53.302;-6.362;2023-02-16T05:53:18;9.80;99.90
37788;DHT22;23627;53.302;-6.362;2023-02-16T05:55:44;9.80;99.90
37788;DHT22;23627;53.302;-6.362;2023-02-16T05:58:10;9.80;99.90
37788;DHT22;23627;53.302;-6.362;2023-02-16T06:00:35;9.80;99.90
37788;DHT22;23627;53.302;-6.362;2023-02-16T06:03:02;9.80;99.90
37788;DHT22;23627;53.302;-6.362;2023-02-16T06:05:28;9.80;99.90
37788;DHT22;23627;53.302;-6.362;2023-02-16T06:07:53;9.80;99.90
37788;DHT22;23627;53.302;-6.362;2023-02-16T06:10:19;9.80;99.90
37788;DHT22;23627;53.302;-6.362;2023-02-16T06:12:45;9.80;99.90
37788;DHT22;23627;53.302;-6.362;2023-02-16T06:15:10;9.80;99.90
37788;DHT22;23627;53.302;-6.362;2023-02-16T06:17:36;9.80;99.90
37788;DHT22;23627;53.302;-6.362;2023-02-16T06:20:02;9.80;99.90
37788;DHT22;23627;53.302;-6.362;2023-02-16T06:22:28;9.80;99.90
37788;DHT22;23627;53.302;-6.362;2023-02-16T06:24:53;9.80;99.90
37788;DHT22;23627;53.302;-6.362;2023-02-16T06:27:19;9.80;99.90
37788;DHT22;23627;53.302;-6.362;2023-02-16T06:29:44;9.80;99.90
37788;DHT22;23627;53.302;-6.362;2023-02-16T06:32:10;9.80;99.90
37788;DHT22;23627;53.302;-6.362;2023-02-16T06:34:36;9.80;99.90
37788;DHT22;23627;53.302;-6.362;2023-02-16T06:37:01;9.80;99.90
37788;DHT22;23627;53.302;-6.362;2023-02-16T06:39:27;9.80;99.90
37788;DHT22;23627;53.302;-6.362;2023-02-16T06:41:52;9.80;99.90
37788;DHT22;23627;53.302;-6.362;2023-02-16T06:44:18;9.90;99.90
37788;DHT22;23627;53.302;-6.362;2023-02-16T06:46:44;9.90;99.90
37788;DHT22;23627;53.302;-6.362;2023-02-16T06:49:11;9.90;99.90
37788;DHT22;23627;53.302;-6.362;2023-02-16T06:51:37;9.90;99.90
37788;DHT22;23627;53.302;-6.362;2023-02-16T06:54:02;9.90;99.90
37788;DHT22;23627;53.302;-6.362;2023-02-16T06:56:28;9.90;99.90
37788;DHT22;23627;53.302;-6.362;2023-02-16T06:58:53;9.90;99.90
37788;DHT22;23627;53.302;-6.362;2023-02-16T07:01:19;9.90;99.90
37788;DHT22;23627;53.302;-6.362;2023-02-16T07:03:51;9.90;99.90
37788;DHT22;23627;53.302;-6.362;2023-02-16T07:06:17;10.00;99.90
37788;DHT22;23627;53.302;-6.362;2023-02-16T07:08:43;10.00;99.90
37788;DHT22;23627;53.302;-6.362;2023-02-16T07:11:08;10.00;99.90
37788;DHT22;23627;53.302;-6.362;2023-02-16T07:13:34;10.00;99.90
37788;DHT22;23627;53.302;-6.362;2023-02-16T07:16:03;10.00;99.90
37788;DHT22;23627;53.302;-6.362;2023-02-16T07:18:28;10.00;99.90
37788;DHT22;23627;53.302;-6.362;2023-02-16T07:20:54;10.00;99.90
37788;DHT22;23627;53.302;-6.362;2023-02-16T07:23:19;10.00;99.90
37788;DHT22;23627;53.302;-6.362;2023-02-16T07:25:45;10.00;99.90
37788;DHT22;23627;53.302;-6.362;2023-02-16T07:28:11;10.00;99.90
37788;DHT22;23627;53.302;-6.362;2023-02-16T07:30:37;10.00;99.90
37788;DHT22;23627;53.302;-6.362;2023-02-16T07:33:03;10.00;99.90
37788;DHT22;23627;53.302;-6.362;2023-02-16T07:35:30;10.00;99.90
37788;DHT22;23627;53.302;-6.362;2023-02-16T07:37:56;10.00;99.90
37788;DHT22;23627;53.302;-6.362;2023-02-16T07:40:22;10.00;99.90
37788;DHT22;23627;53.302;-6.362;2023-02-16T07:42:47;10.00;99.90
37788;DHT22;23627;53.302;-6.362;2023-02-16T07:45:13;10.00;99.90
37788;DHT22;23627;53.302;-6.362;2023-02-16T07:47:38;10.00;99.90
37788;DHT22;23627;53.302;-6.362;2023-02-16T07:50:04;10.00;99.90
37788;DHT22;23627;53.302;-6.362;2023-02-16T07:52:30;10.00;99.90
37788;DHT22;23627;53.302;-6.362;2023-02-16T07:54:56;10.00;99.90
37788;DHT22;23627;53.302;-6.362;2023-02-16T07:57:24;10.00;99.90
37788;DHT22;23627;53.302;-6.362;2023-02-16T07:59:53;10.00;99.90
37788;DHT22;23627;53.302;-6.362;2023-02-16T08:02:19;10.00;99.90
37788;DHT22;23627;53.302;-6.362;2023-02-16T08:04:46;10.00;99.90
37788;DHT22;23627;53.302;-6.362;2023-02-16T08:07:12;10.00;99.90
37788;DHT22;23627;53.302;-6.362;2023-02-16T08:09:38;10.00;99.90
37788;DHT22;23627;53.302;-6.362;2023-02-16T08:12:06;10.00;99.90
37788;DHT22;23627;53.302;-6.362;2023-02-16T08:14:31;10.00;99.90
37788;DHT22;23627;53.302;-6.362;2023-02-16T08:16:57;10.00;99.90
37788;DHT22;23627;53.302;-6.362;2023-02-16T08:19:23;10.00;99.90
37788;DHT22;23627;53.302;-6.362;2023-02-16T08:21:48;10.00;99.90
37788;DHT22;23627;53.302;-6.362;2023-02-16T08:24:15;10.00;99.90
37788;DHT22;23627;53.302;-6.362;2023-02-16T08:26:41;10.10;99.90
37788;DHT22;23627;53.302;-6.362;2023-02-16T08:29:07;10.10;99.90
37788;DHT22;23627;53.302;-6.362;2023-02-16T08:31:39;10.10;99.90
37788;DHT22;23627;53.302;-6.362;2023-02-16T08:34:06;10.10;99.90
37788;DHT22;23627;53.302;-6.362;2023-02-16T08:36:33;10.10;99.90
37788;DHT22;23627;53.302;-6.362;2023-02-16T08:39:20;10.10;99.90
37788;DHT22;23627;53.302;-6.362;2023-02-16T08:41:46;10.10;99.90
37788;DHT22;23627;53.302;-6.362;2023-02-16T08:44:12;10.20;99.90
37788;DHT22;23627;53.302;-6.362;2023-02-16T08:46:40;10.20;99.90
37788;DHT22;23627;53.302;-6.362;2023-02-16T08:49:06;10.20;99.90
37788;DHT22;23627;53.302;-6.362;2023-02-16T08:51:32;10.20;99.90
37788;DHT22;23627;53.302;-6.362;2023-02-16T08:54:02;10.20;99.90
37788;DHT22;23627;53.302;-6.362;2023-02-16T08:56:28;10.20;99.90
37788;DHT22;23627;53.302;-6.362;2023-02-16T08:58:58;10.20;99.90
37788;DHT22;23627;53.302;-6.362;2023-02-16T09:01:24;10.20;99.90
37788;DHT22;23627;53.302;-6.362;2023-02-16T09:03:52;10.20;99.90
37788;DHT22;23627;53.302;-6.362;2023-02-16T09:06:18;10.20;99.90
37788;DHT22;23627;53.302;-6.362;2023-02-16T09:08:49;10.20;99.90
37788;DHT22;23627;53.302;-6.362;2023-02-16T09:11:14;10.30;99.90
37788;DHT22;23627;53.302;-6.362;2023-02-16T09:13:40;10.30;99.90
37788;DHT22;23627;53.302;-6.362;2023-02-16T09:16:17;10.30;99.90
37788;DHT22;23627;53.302;-6.362;2023-02-16T09:18:43;10.30;99.90
37788;DHT22;23627;53.302;-6.362;2023-02-16T09:21:12;10.30;99.90
37788;DHT22;23627;53.302;-6.362;2023-02-16T09:23:40;10.30;99.90
37788;DHT22;23627;53.302;-6.362;2023-02-16T09:26:06;10.30;99.90
37788;DHT22;23627;53.302;-6.362;2023-02-16T09:28:37;10.30;99.90
37788;DHT22;23627;53.302;-6.362;2023-02-16T09:33:36;10.20;99.90
37788;DHT22;23627;53.302;-6.362;2023-02-16T09:36:05;10.20;99.90
37788;DHT22;23627;53.302;-6.362;2023-02-16T09:38:31;10.30;99.90
37788;DHT22;23627;53.302;-6.362;2023-02-16T09:40:57;10.20;99.90
37788;DHT22;23627;53.302;-6.362;2023-02-16T09:43:42;10.20;99.90
37788;DHT22;23627;53.302;-6.362;2023-02-16T09:46:11;10.20;99.90
37788;DHT22;23627;53.302;-6.362;2023-02-16T09:48:39;10.20;99.90
37788;DHT22;23627;53.302;-6.362;2023-02-16T09:51:23;10.20;99.90
37788;DHT22;23627;53.302;-6.362;2023-02-16T09:53:51;10.20;99.90
37788;DHT22;23627;53.302;-6.362;2023-02-16T09:59:38;10.20;99.90
37788;DHT22;23627;53.302;-6.362;2023-02-16T10:01:37;10.20;99.90
37788;DHT22;23627;53.302;-6.362;2023-02-16T10:09:07;10.20;99.90
37788;DHT22;23627;53.302;-6.362;2023-02-16T10:11:51;10.20;99.90
37788;DHT22;23627;53.302;-6.362;2023-02-16T10:16:50;10.30;99.90
37788;DHT22;23627;53.302;-6.362;2023-02-16T10:19:21;10.30;99.90
37788;DHT22;23627;53.302;-6.362;2023-02-16T10:21:50;10.30;99.90
37788;DHT22;23627;53.302;-6.362;2023-02-16T10:24:18;10.30;99.90
37788;DHT22;23627;53.302;-6.362;2023-02-16T10:26:49;10.30;99.90
37788;DHT22;23627;53.302;-6.362;2023-02-16T10:29:17;10.30;99.90
37788;DHT22;23627;53.302;-6.362;2023-02-16T10:39:33;10.40;99.90
37788;DHT22;23627;53.302;-6.362;2023-02-16T10:44:35;10.40;99.90
37788;DHT22;23627;53.302;-6.362;2023-02-16T10:47:04;10.40;99.90
37788;DHT22;23627;53.302;-6.362;2023-02-16T10:49:31;10.40;99.90
37788;DHT22;23627;53.302;-6.362;2023-02-16T10:52:00;10.40;99.90
37788;DHT22;23627;53.302;-6.362;2023-02-16T10:54:29;10.40;99.90
37788;DHT22;23627;53.302;-6.362;2023-02-16T10:56:57;10.40;99.90
37788;DHT22;23627;53.302;-6.362;2023-02-16T10:59:29;10.40;99.90
37788;DHT22;23627;53.302;-6.362;2023-02-16T11:01:59;10.50;99.90
37788;DHT22;23627;53.302;-6.362;2023-02-16T11:07:05;10.60;99.90
37788;DHT22;23627;53.302;-6.362;2023-02-16T11:09:38;10.60;99.90
37788;DHT22;23627;53.302;-6.362;2023-02-16T11:14:49;10.60;99.90
37788;DHT22;23627;53.302;-6.362;2023-02-16T11:17:16;10.60;99.90
37788;DHT22;23627;53.302;-6.362;2023-02-16T11:19:47;10.70;99.90
37788;DHT22;23627;53.302;-6.362;2023-02-16T11:22:26;10.70;99.90
37788;DHT22;23627;53.302;-6.362;2023-02-16T11:24:52;10.80;99.90
37788;DHT22;23627;53.302;-6.362;2023-02-16T11:27:20;10.80;99.90
37788;DHT22;23627;53.302;-6.362;2023-02-16T11:29:46;10.90;99.90
37788;DHT22;23627;53.302;-6.362;2023-02-16T11:32:12;10.90;99.90
37788;DHT22;23627;53.302;-6.362;2023-02-16T11:34:39;10.90;99.90
37788;DHT22;23627;53.302;-6.362;2023-02-16T11:37:12;10.90;99.90
37788;DHT22;23627;53.302;-6.362;2023-02-16T11:39:38;11.00;99.90
37788;DHT22;23627;53.302;-6.362;2023-02-16T11:42:06;11.00;99.90
37788;DHT22;23627;53.302;-6.362;2023-02-16T11:44:37;11.00;99.90
37788;DHT22;23627;53.302;-6.362;2023-02-16T11:47:05;11.10;99.90
37788;DHT22;23627;53.302;-6.362;2023-02-16T11:49:33;11.10;99.90
37788;DHT22;23627;53.302;-6.362;2023-02-16T11:51:59;11.00;99.90
37788;DHT22;23627;53.302;-6.362;2023-02-16T11:54:25;11.10;99.90
37788;DHT22;23627;53.302;-6.362;2023-02-16T11:57:04;11.00;99.90
37788;DHT22;23627;53.302;-6.362;2023-02-16T11:59:34;11.10;99.90
37788;DHT22;23627;53.302;-6.362;2023-02-16T12:02:06;11.10;99.90
37788;DHT22;23627;53.302;-6.362;2023-02-16T12:12:16;11.50;99.90
37788;DHT22;23627;53.302;-6.362;2023-02-16T12:17:42;11.60;99.90
37788;DHT22;23627;53.302;-6.362;2023-02-16T12:22:57;11.70;99.90
37788;DHT22;23627;53.302;-6.362;2023-02-16T12:30:55;11.90;99.90
37788;DHT22;23627;53.302;-6.362;2023-02-16T12:46:25;12.10;99.90
37788;DHT22;23627;53.302;-6.362;2023-02-16T12:48:51;12.20;99.90
37788;DHT22;23627;53.302;-6.362;2023-02-16T12:51:21;12.20;99.90
37788;DHT22;23627;53.302;-6.362;2023-02-16T12:53:49;12.30;99.90
37788;DHT22;23627;53.302;-6.362;2023-02-16T12:59:16;12.40;99.90
37788;DHT22;23627;53.302;-6.362;2023-02-16T13:01:43;12.40;99.90
37788;DHT22;23627;53.302;-6.362;2023-02-16T13:06:42;12.60;99.90
37788;DHT22;23627;53.302;-6.362;2023-02-16T13:12:00;12.80;99.90
37788;DHT22;23627;53.302;-6.362;2023-02-16T13:14:30;12.80;99.90
37788;DHT22;23627;53.302;-6.362;2023-02-16T13:16:58;12.90;99.90
37788;DHT22;23627;53.302;-6.362;2023-02-16T13:19:26;12.90;99.90
37788;DHT22;23627;53.302;-6.362;2023-02-16T13:26:53;12.90;99.90
37788;DHT22;23627;53.302;-6.362;2023-02-16T13:34:31;12.90;99.90
37788;DHT22;23627;53.302;-6.362;2023-02-16T13:45:11;12.80;99.90
37788;DHT22;23627;53.302;-6.362;2023-02-16T13:47:38;12.70;99.90
37788;DHT22;23627;53.302;-6.362;2023-02-16T13:50:05;12.70;99.90
37788;DHT22;23627;53.302;-6.362;2023-02-16T13:52:37;12.60;99.90
37788;DHT22;23627;53.302;-6.362;2023-02-16T13:55:05;12.60;99.90
37788;DHT22;23627;53.302;-6.362;2023-02-16T14:00:26;12.60;99.90
37788;DHT22;23627;53.302;-6.362;2023-02-16T14:02:57;12.60;99.90
37788;DHT22;23627;53.302;-6.362;2023-02-16T14:05:24;12.60;99.90
37788;DHT22;23627;53.302;-6.362;2023-02-16T14:08:07;12.60;99.90
37788;DHT22;23627;53.302;-6.362;2023-02-16T14:13:26;12.70;99.90
37788;DHT22;23627;53.302;-6.362;2023-02-16T14:15:53;12.80;99.90
37788;DHT22;23627;53.302;-6.362;2023-02-16T14:18:41;12.90;99.90
37788;DHT22;23627;53.302;-6.362;2023-02-16T14:21:06;12.90;99.90
37788;DHT22;23627;53.302;-6.362;2023-02-16T14:23:40;12.90;99.90
37788;DHT22;23627;53.302;-6.362;2023-02-16T14:26:07;12.90;99.90
37788;DHT22;23627;53.302;-6.362;2023-02-16T14:31:09;12.90;99.90
37788;DHT22;23627;53.302;-6.362;2023-02-16T14:33:41;13.00;99.90
37788;DHT22;23627;53.302;-6.362;2023-02-16T14:36:15;13.00;99.90
37788;DHT22;23627;53.302;-6.362;2023-02-16T14:38:42;13.00;99.90
37788;DHT22;23627;53.302;-6.362;2023-02-16T14:41:11;13.00;99.90
37788;DHT22;23627;53.302;-6.362;2023-02-16T14:43:44;12.90;99.90
37788;DHT22;23627;53.302;-6.362;2023-02-16T14:56:35;12.80;99.90
37788;DHT22;23627;53.302;-6.362;2023-02-16T14:59:10;12.80;99.90
37788;DHT22;23627;53.302;-6.362;2023-02-16T15:01:42;12.80;99.90
37788;DHT22;23627;53.302;-6.362;2023-02-16T15:04:08;12.80;99.90
37788;DHT22;23627;53.302;-6.362;2023-02-16T15:06:42;12.80;99.90
37788;DHT22;23627;53.302;-6.362;2023-02-16T15:09:13;12.90;99.90
37788;DHT22;23627;53.302;-6.362;2023-02-16T15:11:41;12.90;99.90
37788;DHT22;23627;53.302;-6.362;2023-02-16T15:14:31;12.80;99.90
37788;DHT22;23627;53.302;-6.362;2023-02-16T15:16:59;12.80;99.90
37788;DHT22;23627;53.302;-6.362;2023-02-16T15:19:30;12.80;99.90
37788;DHT22;23627;53.302;-6.362;2023-02-16T15:24:40;12.70;99.90
37788;DHT22;23627;53.302;-6.362;2023-02-16T15:27:05;12.70;99.90
37788;DHT22;23627;53.302;-6.362;2023-02-16T15:29:31;12.70;99.90
37788;DHT22;23627;53.302;-6.362;2023-02-16T15:31:57;12.70;99.90
37788;DHT22;23627;53.302;-6.362;2023-02-16T15:36:52;12.70;99.90
37788;DHT22;23627;53.302;-6.362;2023-02-16T15:39:28;12.70;99.90
37788;DHT22;23627;53.302;-6.362;2023-02-16T15:44:38;12.70;99.90
37788;DHT22;23627;53.302;-6.362;2023-02-16T15:47:08;12.70;99.90
37788;DHT22;23627;53.302;-6.362;2023-02-16T15:49:34;12.70;99.90
37788;DHT22;23627;53.302;-6.362;2023-02-16T15:52:04;12.70;99.90
37788;DHT22;23627;53.302;-6.362;2023-02-16T15:54:34;12.70;99.90
37788;DHT22;23627;53.302;-6.362;2023-02-16T15:57:04;12.70;99.90
37788;DHT22;23627;53.302;-6.362;2023-02-16T15:59:33;12.70;99.90
37788;DHT22;23627;53.302;-6.362;2023-02-16T16:02:09;12.70;99.90
37788;DHT22;23627;53.302;-6.362;2023-02-16T16:04:37;12.70;99.90
37788;DHT22;23627;53.302;-6.362;2023-02-16T16:07:04;12.60;99.90
37788;DHT22;23627;53.302;-6.362;2023-02-16T16:09:31;12.60;99.90
37788;DHT22;23627;53.302;-6.362;2023-02-16T16:12:03;12.60;99.90
37788;DHT22;23627;53.302;-6.362;2023-02-16T16:14:32;12.50;99.90
37788;DHT22;23627;53.302;-6.362;2023-02-16T16:16:59;12.50;99.90
37788;DHT22;23627;53.302;-6.362;2023-02-16T16:19:35;12.40;99.90
37788;DHT22;23627;53.302;-6.362;2023-02-16T16:22:01;12.40;99.90
37788;DHT22;23627;53.302;-6.362;2023-02-16T16:24:35;12.40;99.90
37788;DHT22;23627;53.302;-6.362;2023-02-16T16:27:04;12.30;99.90
37788;DHT22;23627;53.302;-6.362;2023-02-16T16:29:35;12.30;99.90
37788;DHT22;23627;53.302;-6.362;2023-02-16T16:32:01;12.30;99.90
37788;DHT22;23627;53.302;-6.362;2023-02-16T16:34:45;12.30;99.90
37788;DHT22;23627;53.302;-6.362;2023-02-16T16:39:59;12.30;99.90
37788;DHT22;23627;53.302;-6.362;2023-02-16T16:42:26;12.30;99.90
37788;DHT22;23627;53.302;-6.362;2023-02-16T16:47:25;12.20;99.90
37788;DHT22;23627;53.302;-6.362;2023-02-16T16:49:59;12.20;99.90
37788;DHT22;23627;53.302;-6.362;2023-02-16T16:52:33;12.20;99.90
37788;DHT22;23627;53.302;-6.362;2023-02-16T16:54:58;12.20;99.90
37788;DHT22;23627;53.302;-6.362;2023-02-16T16:57:24;12.20;99.90
37788;DHT22;23627;53.302;-6.362;2023-02-16T16:59:50;12.20;99.90
37788;DHT22;23627;53.302;-6.362;2023-02-16T17:02:15;12.20;99.90
37788;DHT22;23627;53.302;-6.362;2023-02-16T17:04:41;12.10;99.90
37788;DHT22;23627;53.302;-6.362;2023-02-16T17:07:06;12.10;99.90
37788;DHT22;23627;53.302;-6.362;2023-02-16T17:09:32;12.10;99.90
37788;DHT22;23627;53.302;-6.362;2023-02-16T17:11:57;12.10;99.90
37788;DHT22;23627;53.302;-6.362;2023-02-16T17:14:23;12.10;99.90
37788;DHT22;23627;53.302;-6.362;2023-02-16T17:16:49;12.10;99.90
37788;DHT22;23627;53.302;-6.362;2023-02-16T17:19:16;12.10;99.90
37788;DHT22;23627;53.302;-6.362;2023-02-16T17:21:42;12.00;99.90
37788;DHT22;23627;53.302;-6.362;2023-02-16T17:24:09;12.00;99.90
37788;DHT22;23627;53.302;-6.362;2023-02-16T17:26:37;12.00;99.90
37788;DHT22;23627;53.302;-6.362;2023-02-16T17:29:04;12.00;99.90
37788;DHT22;23627;53.302;-6.362;2023-02-16T17:31:30;12.00;99.90
37788;DHT22;23627;53.302;-6.362;2023-02-16T17:33:55;11.90;99.90
37788;DHT22;23627;53.302;-6.362;2023-02-16T17:36:21;11.90;99.90
37788;DHT22;23627;53.302;-6.362;2023-02-16T17:38:47;11.90;99.90
37788;DHT22;23627;53.302;-6.362;2023-02-16T17:41:17;11.90;99.90
37788;DHT22;23627;53.302;-6.362;2023-02-16T17:43:44;11.90;99.90
37788;DHT22;23627;53.302;-6.362;2023-02-16T17:46:09;11.90;99.90
37788;DHT22;23627;53.302;-6.362;2023-02-16T17:48:35;11.90;99.90
37788;DHT22;23627;53.302;-6.362;2023-02-16T17:51:01;11.90;99.90
37788;DHT22;23627;53.302;-6.362;2023-02-16T17:53:27;11.90;99.90
37788;DHT22;23627;53.302;-6.362;2023-02-16T17:55:53;11.90;99.90
37788;DHT22;23627;53.302;-6.362;2023-02-16T17:58:20;11.90;99.90